createdAt,value
2017-03-01T00:00:41.042Z,10.88
2017-03-01T00:01:51.434Z,10.72
2017-03-01T00:03:01.834Z,10.79
2017-03-01T00:04:11.452Z,10.76
2017-03-01T00:05:21.479Z,10.79
2017-03-01T00:06:31.859Z,10.77
2017-03-01T00:07:42.244Z,10.8
2017-03-01T00:08:52.260Z,10.79
2017-03-01T00:10:02.268Z,10.63
2017-03-01T00:11:13.041Z,10.73
2017-03-01T00:12:23.820Z,10.65
2017-03-01T00:13:34.223Z,10.66
2017-03-01T00:14:45.024Z,10.72
2017-03-01T00:15:55.404Z,10.66
2017-03-01T00:17:06.197Z,10.66
2017-03-01T00:18:16.988Z,10.63
2017-03-01T00:19:27.801Z,10.61
2017-03-01T00:20:38.211Z,10.58
2017-03-01T00:21:48.974Z,10.57
2017-03-01T00:22:59.356Z,10.54
2017-03-01T00:24:09.368Z,10.52
2017-03-01T00:25:19.764Z,10.49
2017-03-01T00:26:30.181Z,10.47
2017-03-01T00:27:40.948Z,10.63
2017-03-01T00:28:50.954Z,10.49
2017-03-01T00:30:01.000Z,10.58
2017-03-01T00:31:11.773Z,10.61
2017-03-01T00:32:22.157Z,10.59
2017-03-01T00:33:32.137Z,10.61
2017-03-01T00:34:42.113Z,10.58
2017-03-01T00:35:52.889Z,10.57
2017-03-01T00:37:03.301Z,10.54
2017-03-01T00:38:13.688Z,10.47
2017-03-01T00:39:23.677Z,10.51
2017-03-01T00:40:34.442Z,10.52
2017-03-01T00:41:45.254Z,10.55
2017-03-01T00:42:55.629Z,10.55
2017-03-01T00:44:06.427Z,10.49
2017-03-01T00:45:17.234Z,10.51
2017-03-01T00:46:28.069Z,10.49
2017-03-01T00:47:38.872Z,10.47
2017-03-01T00:48:49.684Z,10.42
2017-03-01T00:49:59.691Z,10.47
2017-03-01T00:51:10.076Z,10.47
2017-03-01T00:52:20.465Z,10.47
2017-03-01T00:53:30.845Z,10.46
2017-03-01T00:54:41.623Z,10.46
2017-03-01T00:55:52.053Z,10.55
2017-03-01T00:57:02.449Z,10.38
2017-03-01T00:58:12.487Z,10.42
2017-03-01T00:59:23.257Z,10.49
2017-03-01T01:00:33.646Z,10.54
2017-03-01T01:01:44.449Z,10.55
2017-03-01T01:02:55.498Z,10.54
2017-03-01T01:04:05.959Z,10.54
2017-03-01T01:05:16.743Z,10.51
2017-03-01T01:06:27.116Z,10.47
2017-03-01T01:07:37.491Z,10.58
2017-03-01T01:08:47.888Z,10.47
2017-03-01T01:09:58.680Z,10.51
2017-03-01T01:11:09.076Z,10.51
2017-03-01T01:12:19.482Z,10.47
2017-03-01T01:13:30.269Z,10.55
2017-03-01T01:14:41.056Z,10.47
2017-03-01T01:15:51.439Z,10.51
2017-03-01T01:17:01.829Z,10.55
2017-03-01T01:18:12.614Z,10.59
2017-03-01T01:19:22.224Z,10.49
2017-03-01T01:20:32.623Z,10.58
2017-03-01T01:21:43.412Z,10.52
2017-03-01T01:22:54.196Z,10.55
2017-03-01T01:24:03.787Z,10.51
2017-03-01T01:25:14.196Z,10.55
2017-03-01T01:26:24.574Z,10.61
2017-03-01T01:27:34.566Z,10.52
2017-03-01T01:28:44.951Z,10.52
2017-03-01T01:29:54.943Z,10.51
2017-03-01T01:31:05.341Z,10.52
2017-03-01T01:32:15.708Z,10.61
2017-03-01T01:33:25.700Z,10.51
2017-03-01T01:34:35.691Z,10.49
2017-03-01T01:35:46.483Z,10.61
2017-03-01T01:36:56.866Z,10.58
2017-03-01T01:38:07.276Z,10.66
2017-03-01T01:39:17.674Z,10.55
2017-03-01T01:40:28.113Z,10.52
2017-03-01T01:41:38.136Z,10.58
2017-03-01T01:42:48.538Z,10.57
2017-03-01T01:43:59.329Z,10.52
2017-03-01T01:45:10.118Z,10.51
2017-03-01T01:46:20.495Z,10.51
2017-03-01T01:47:31.286Z,10.57
2017-03-01T01:48:41.667Z,10.63
2017-03-01T01:49:51.279Z,10.65
2017-03-01T01:51:01.680Z,10.66
2017-03-01T01:52:12.062Z,10.67
2017-03-01T01:53:21.685Z,10.59
2017-03-01T01:54:32.452Z,10.63
2017-03-01T01:55:42.841Z,10.59
2017-03-01T01:56:53.643Z,10.63
2017-03-01T01:58:04.426Z,10.57
2017-03-01T01:59:14.813Z,10.59
2017-03-01T02:00:25.581Z,10.67
2017-03-01T02:01:35.575Z,10.59
2017-03-01T02:02:46.369Z,10.66
2017-03-01T02:03:57.164Z,10.66
2017-03-01T02:05:07.945Z,10.67
2017-03-01T02:06:18.332Z,10.59
2017-03-01T02:07:28.713Z,10.59
2017-03-01T02:08:39.110Z,10.66
2017-03-01T02:09:49.878Z,10.63
2017-03-01T02:11:00.658Z,10.63
2017-03-01T02:12:11.444Z,10.59
2017-03-01T02:13:22.213Z,10.55
2017-03-01T02:14:32.990Z,10.63
2017-03-01T02:15:43.780Z,10.58
2017-03-01T02:16:53.774Z,10.67
2017-03-01T02:18:03.767Z,10.66
2017-03-01T02:19:14.553Z,10.7
2017-03-01T02:20:25.334Z,10.7
2017-03-01T02:21:36.104Z,10.69
2017-03-01T02:22:46.501Z,10.66
2017-03-01T02:23:56.896Z,10.69
2017-03-01T02:25:07.655Z,10.67
2017-03-01T02:26:18.042Z,10.65
2017-03-01T02:27:28.033Z,10.75
2017-03-01T02:28:38.834Z,10.65
2017-03-01T02:29:48.012Z,10.73
2017-03-01T02:30:57.998Z,10.67
2017-03-01T02:32:07.615Z,10.72
2017-03-01T02:33:17.619Z,10.79
2017-03-01T02:34:28.022Z,10.75
2017-03-01T02:35:38.810Z,10.66
2017-03-01T02:36:49.611Z,10.72
2017-03-01T02:37:59.602Z,10.77
2017-03-01T02:39:10.391Z,10.72
2017-03-01T02:40:20.825Z,10.7
2017-03-01T02:41:31.198Z,10.66
2017-03-01T02:42:41.603Z,10.63
2017-03-01T02:43:51.985Z,10.69
2017-03-01T02:45:02.391Z,10.65
2017-03-01T02:46:12.795Z,10.59
2017-03-01T02:47:23.177Z,10.67
2017-03-01T02:48:33.565Z,10.63
2017-03-01T02:49:44.340Z,10.61
2017-03-01T02:50:54.722Z,10.52
2017-03-01T02:52:05.520Z,10.51
2017-03-01T02:53:16.323Z,10.55
2017-03-01T02:54:27.087Z,10.46
2017-03-01T02:55:37.470Z,10.57
2017-03-01T02:56:47.860Z,10.51
2017-03-01T02:57:58.662Z,10.44
2017-03-01T02:59:08.259Z,10.49
2017-03-01T03:00:17.895Z,10.55
2017-03-01T03:32:05.106Z,7.93
2017-03-01T03:33:15.499Z,7.92
2017-03-01T03:34:25.871Z,7.92
2017-03-01T03:35:36.243Z,8.01
2017-03-01T03:36:46.619Z,8.07
2017-03-01T03:37:56.213Z,8.21
2017-03-01T03:39:05.831Z,8.34
2017-03-01T03:40:16.218Z,8.5
2017-03-01T03:41:26.576Z,8.57
2017-03-01T03:42:36.547Z,8.79
2017-03-01T03:43:46.540Z,8.9
2017-03-01T03:44:57.388Z,9.11
2017-03-01T03:46:07.410Z,9.23
2017-03-01T03:47:18.184Z,9.32
2017-03-01T03:48:28.585Z,9.42
2017-03-01T03:49:38.595Z,9.55
2017-03-01T03:50:48.999Z,9.64
2017-03-01T03:51:59.775Z,9.8
2017-03-01T03:53:10.564Z,9.85
2017-03-01T03:54:21.355Z,9.95
2017-03-01T03:55:31.720Z,9.93
2017-03-01T03:56:42.109Z,10.08
2017-03-01T03:57:52.902Z,10.11
2017-03-01T03:59:03.695Z,10.25
2017-03-01T04:00:14.514Z,10.28
2017-03-01T04:01:25.325Z,10.32
2017-03-01T04:02:35.707Z,10.28
2017-03-01T04:03:46.501Z,10.39
2017-03-01T04:04:56.881Z,10.36
2017-03-01T04:06:07.648Z,10.44
2017-03-01T04:07:18.486Z,10.41
2017-03-01T04:08:28.476Z,10.46
2017-03-01T04:09:39.284Z,10.52
2017-03-01T04:10:50.074Z,10.55
2017-03-01T04:12:00.455Z,10.49
2017-03-01T04:13:10.857Z,10.54
2017-03-01T04:14:21.239Z,10.52
2017-03-01T04:15:32.025Z,10.51
2017-03-01T04:16:42.680Z,10.47
2017-03-01T04:17:53.070Z,10.51
2017-03-01T04:19:03.102Z,10.52
2017-03-01T04:20:13.497Z,10.57
2017-03-01T04:21:24.280Z,10.51
2017-03-01T04:22:34.673Z,10.58
2017-03-01T04:23:45.064Z,10.63
2017-03-01T04:24:55.882Z,10.58
2017-03-01T04:26:05.873Z,10.63
2017-03-01T04:27:16.274Z,10.61
2017-03-01T04:28:27.074Z,10.54
2017-03-01T04:29:37.869Z,10.55
2017-03-01T04:30:48.639Z,10.51
2017-03-01T04:31:59.424Z,10.55
2017-03-01T04:33:09.829Z,10.63
2017-03-01T04:34:20.202Z,10.55
2017-03-01T04:35:30.986Z,10.51
2017-03-01T04:36:40.971Z,10.52
2017-03-01T04:37:51.343Z,10.52
2017-03-01T04:39:02.122Z,10.52
2017-03-01T04:40:12.939Z,10.52
2017-03-01T04:41:23.713Z,10.52
2017-03-01T04:42:34.109Z,10.52
2017-03-01T04:43:44.882Z,10.52
2017-03-01T04:44:54.879Z,10.54
2017-03-01T04:46:05.686Z,10.58
2017-03-01T04:47:15.683Z,10.47
2017-03-01T04:48:26.074Z,10.47
2017-03-01T04:49:36.874Z,10.57
2017-03-01T04:50:47.286Z,10.49
2017-03-01T04:51:56.500Z,10.52
2017-03-01T04:53:06.925Z,10.51
2017-03-01T04:54:17.311Z,10.47
2017-03-01T04:55:28.110Z,10.57
2017-03-01T04:56:38.881Z,10.54
2017-03-01T04:57:49.277Z,10.44
2017-03-01T04:59:00.084Z,10.57
2017-03-01T05:00:10.480Z,10.54
2017-03-01T05:01:21.259Z,10.55
2017-03-01T05:02:32.044Z,10.46
2017-03-01T05:03:42.855Z,10.51
2017-03-01T05:04:53.637Z,10.46
2017-03-01T05:06:04.419Z,10.46
2017-03-01T05:07:14.816Z,10.47
2017-03-01T05:08:24.844Z,10.47
2017-03-01T05:09:35.636Z,10.51
2017-03-01T05:10:46.050Z,10.41
2017-03-01T05:11:56.062Z,10.44
2017-03-01T05:13:06.080Z,10.44
2017-03-01T05:14:16.860Z,10.35
2017-03-01T05:15:27.667Z,10.41
2017-03-01T05:16:38.047Z,10.36
2017-03-01T05:17:48.836Z,10.41
2017-03-01T05:18:58.439Z,10.38
2017-03-01T05:20:08.816Z,10.36
2017-03-01T05:21:18.812Z,10.39
2017-03-01T05:22:29.209Z,10.33
2017-03-01T05:23:39.608Z,10.36
2017-03-01T05:24:49.983Z,10.29
2017-03-01T05:26:00.371Z,10.38
2017-03-01T05:27:10.762Z,10.2
2017-03-01T05:28:21.145Z,10.25
2017-03-01T05:29:31.509Z,10.23
2017-03-01T05:30:41.895Z,10.28
2017-03-01T05:31:51.873Z,10.25
2017-03-01T05:33:02.660Z,10.28
2017-03-01T05:34:13.450Z,10.17
2017-03-01T05:35:23.858Z,10.14
2017-03-01T05:36:34.259Z,10.13
2017-03-01T05:37:44.637Z,10.15
2017-03-01T05:38:55.408Z,10.11
2017-03-01T05:40:05.370Z,10.08
2017-03-01T05:41:15.382Z,9.96
2017-03-01T05:42:26.161Z,10.03
2017-03-01T05:43:36.577Z,10.1
2017-03-01T05:44:47.352Z,10.05
2017-03-01T05:45:57.729Z,10.08
2017-03-01T05:47:08.113Z,10.07
2017-03-01T05:48:18.095Z,10.02
2017-03-01T05:49:28.868Z,9.96
2017-03-01T05:50:39.260Z,10.02
2017-03-01T05:51:50.036Z,10.02
2017-03-01T05:53:00.433Z,10.02
2017-03-01T05:54:10.426Z,10.03
2017-03-01T05:55:20.815Z,9.89
2017-03-01T05:56:31.604Z,10.03
2017-03-01T05:57:42.399Z,9.96
2017-03-01T05:58:53.173Z,10.03
2017-03-01T06:00:03.959Z,9.99
2017-03-01T06:01:13.554Z,10
2017-03-01T06:02:23.932Z,10.02
2017-03-01T06:03:34.718Z,10
2017-03-01T06:04:45.111Z,10.13
2017-03-01T06:05:55.496Z,10.15
2017-03-01T06:07:05.874Z,10.17
2017-03-01T06:08:16.300Z,10.21
2017-03-01T06:09:26.702Z,10.28
2017-03-01T06:10:36.709Z,10.21
2017-03-01T06:11:47.517Z,10.23
2017-03-01T06:12:58.287Z,10.21
2017-03-01T06:14:08.681Z,10.28
2017-03-01T06:15:19.070Z,10.31
2017-03-01T06:16:29.466Z,10.26
2017-03-01T06:17:40.239Z,10.29
2017-03-01T06:18:50.626Z,10.33
2017-03-01T06:20:01.419Z,10.39
2017-03-01T06:21:12.198Z,10.35
2017-03-01T06:22:22.170Z,10.42
2017-03-01T06:23:32.964Z,10.47
2017-03-01T06:24:43.378Z,10.38
2017-03-01T06:25:54.172Z,10.41
2017-03-01T06:27:04.580Z,10.49
2017-03-01T06:28:15.376Z,10.51
2017-03-01T06:29:25.372Z,10.52
2017-03-01T06:30:36.158Z,10.47
2017-03-01T06:31:46.565Z,10.49
2017-03-01T06:32:56.947Z,10.63
2017-03-01T06:34:07.351Z,10.52
2017-03-01T06:35:17.740Z,10.59
2017-03-01T06:36:28.123Z,10.54
2017-03-01T06:37:38.514Z,10.66
2017-03-01T06:38:48.548Z,10.52
2017-03-01T06:39:58.556Z,10.67
2017-03-01T06:41:09.341Z,10.59
2017-03-01T06:42:20.101Z,10.59
2017-03-01T06:43:30.480Z,10.65
2017-03-01T06:44:40.488Z,10.65
2017-03-01T06:45:51.295Z,10.67
2017-03-01T06:47:01.680Z,10.66
2017-03-01T06:48:12.478Z,10.7
2017-03-01T06:49:23.257Z,10.76
2017-03-01T06:50:33.654Z,10.8
2017-03-01T06:51:44.454Z,10.77
2017-03-01T06:52:54.840Z,10.79
2017-03-01T06:54:04.848Z,10.77
2017-03-01T06:55:14.846Z,10.77
2017-03-01T06:56:25.612Z,10.88
2017-03-01T06:57:36.418Z,10.87
2017-03-01T06:58:46.405Z,10.94
2017-03-01T06:59:56.782Z,10.94
2017-03-01T07:01:07.559Z,10.94
2017-03-01T07:02:17.976Z,10.95
2017-03-01T07:03:28.406Z,11.05
2017-03-01T07:04:38.786Z,11.03
2017-03-01T07:05:49.596Z,11.06
2017-03-01T07:06:59.979Z,11.2
2017-03-01T07:08:10.379Z,11.2
2017-03-01T07:09:21.151Z,11.2
2017-03-01T07:10:31.937Z,11.27
2017-03-01T07:11:42.747Z,11.15
2017-03-01T07:12:53.548Z,11.27
2017-03-01T07:14:04.311Z,11.34
2017-03-01T07:15:15.099Z,11.42
2017-03-01T07:16:25.885Z,11.43
2017-03-01T07:17:36.277Z,11.43
2017-03-01T07:18:46.275Z,11.48
2017-03-01T07:19:56.646Z,11.48
2017-03-01T07:21:07.437Z,11.45
2017-03-01T07:22:18.232Z,11.52
2017-03-01T07:23:29.019Z,11.46
2017-03-01T07:24:38.623Z,11.51
2017-03-01T07:25:49.397Z,11.53
2017-03-01T07:26:59.387Z,11.7
2017-03-01T07:28:09.806Z,11.66
2017-03-01T07:29:20.570Z,11.68
2017-03-01T07:30:31.405Z,11.64
2017-03-01T07:31:41.807Z,11.76
2017-03-01T07:32:51.818Z,11.79
2017-03-01T07:34:02.197Z,11.76
2017-03-01T07:35:12.171Z,11.79
2017-03-01T07:36:22.171Z,11.76
2017-03-01T07:37:32.552Z,11.76
2017-03-01T07:38:42.945Z,11.82
2017-03-01T07:39:53.723Z,11.84
2017-03-01T07:41:03.737Z,11.86
2017-03-01T07:42:14.509Z,11.94
2017-03-01T07:43:24.903Z,11.91
2017-03-01T07:44:35.287Z,12
2017-03-01T07:45:46.070Z,12.11
2017-03-01T07:46:56.496Z,12.1
2017-03-01T07:48:07.276Z,12.16
2017-03-01T07:49:17.684Z,12.13
2017-03-01T07:50:27.681Z,12.08
2017-03-01T07:51:38.435Z,12.23
2017-03-01T07:52:49.246Z,12.22
2017-03-01T07:53:59.239Z,12.2
2017-03-01T07:55:09.683Z,12.29
2017-03-01T07:56:20.471Z,12.33
2017-03-01T07:57:31.265Z,12.45
2017-03-01T07:58:42.043Z,12.43
2017-03-01T07:59:52.851Z,12.38
2017-03-01T08:01:02.845Z,12.41
2017-03-01T08:02:13.654Z,12.44
2017-03-01T08:03:24.057Z,12.43
2017-03-01T08:04:34.738Z,12.44
2017-03-01T08:05:45.550Z,12.43
2017-03-01T08:06:55.931Z,12.55
2017-03-01T08:08:05.923Z,12.48
2017-03-01T08:09:16.560Z,12.58
2017-03-01T08:10:27.349Z,12.55
2017-03-01T08:11:36.961Z,12.56
2017-03-01T08:12:46.981Z,12.61
2017-03-01T08:13:56.962Z,12.53
2017-03-01T08:15:07.772Z,12.56
2017-03-01T08:16:17.775Z,12.61
2017-03-01T08:17:28.167Z,12.59
2017-03-01T08:18:38.953Z,12.56
2017-03-01T08:19:49.749Z,12.65
2017-03-01T08:21:00.122Z,12.8
2017-03-01T08:22:10.120Z,12.8
2017-03-01T08:23:19.743Z,12.83
2017-03-01T08:24:29.729Z,12.92
2017-03-01T08:25:40.123Z,12.86
2017-03-01T08:26:50.514Z,12.88
2017-03-01T08:28:01.277Z,13.01
2017-03-01T08:29:12.078Z,13.02
2017-03-01T08:30:22.844Z,13.07
2017-03-01T08:31:33.243Z,13.1
2017-03-01T08:32:44.034Z,13.16
2017-03-01T08:33:54.052Z,13.27
2017-03-01T08:35:04.823Z,13.31
2017-03-01T08:36:15.632Z,13.27
2017-03-01T08:37:26.431Z,13.45
2017-03-01T08:38:36.421Z,13.47
2017-03-01T08:39:46.817Z,13.48
2017-03-01T08:40:57.609Z,13.53
2017-03-01T08:42:08.445Z,13.63
2017-03-01T08:43:18.841Z,13.55
2017-03-01T08:44:29.239Z,13.58
2017-03-01T08:45:39.235Z,13.6
2017-03-01T08:46:49.618Z,13.58
2017-03-01T08:47:59.992Z,13.57
2017-03-01T08:49:10.377Z,13.58
2017-03-01T08:50:20.767Z,13.66
2017-03-01T08:51:31.562Z,13.68
2017-03-01T08:52:42.349Z,13.73
2017-03-01T08:53:53.140Z,13.72
2017-03-01T08:55:03.933Z,13.63
2017-03-01T08:56:14.715Z,13.7
2017-03-01T08:57:25.514Z,13.79
2017-03-01T08:58:36.333Z,13.84
2017-03-01T08:59:47.125Z,13.88
2017-03-01T09:00:57.524Z,13.91
2017-03-01T09:02:08.301Z,13.84
2017-03-01T09:03:19.115Z,13.9
2017-03-01T09:04:29.497Z,13.84
2017-03-01T09:05:39.496Z,13.84
2017-03-01T09:06:50.274Z,13.88
2017-03-01T09:08:01.062Z,13.83
2017-03-01T09:09:11.048Z,13.9
2017-03-01T09:10:20.677Z,13.84
2017-03-01T09:11:31.474Z,13.87
2017-03-01T09:12:42.318Z,13.9
2017-03-01T09:13:52.693Z,13.93
2017-03-01T09:15:03.081Z,13.94
2017-03-01T09:16:13.487Z,13.94
2017-03-01T09:17:23.892Z,13.94
2017-03-01T09:18:34.365Z,13.95
2017-03-01T09:19:45.173Z,13.93
2017-03-01T09:20:56.195Z,13.93
2017-03-01T09:22:06.595Z,13.91
2017-03-01T09:23:17.403Z,13.91
2017-03-01T09:24:28.239Z,13.83
2017-03-01T09:25:39.105Z,13.84
2017-03-01T09:26:49.915Z,13.91
2017-03-01T09:28:00.705Z,13.81
2017-03-01T09:29:10.719Z,13.9
2017-03-01T09:30:21.520Z,13.84
2017-03-01T09:31:32.316Z,13.88
2017-03-01T09:32:42.729Z,13.99
2017-03-01T09:33:53.133Z,14.06
2017-03-01T09:35:03.522Z,14.09
2017-03-01T09:36:13.124Z,14.13
2017-03-01T09:37:23.529Z,14.2
2017-03-01T09:38:33.961Z,14.23
2017-03-01T09:39:44.378Z,14.27
2017-03-01T09:40:55.163Z,14.36
2017-03-01T09:42:05.970Z,14.41
2017-03-01T09:43:16.763Z,14.39
2017-03-01T09:44:27.564Z,14.49
2017-03-01T09:45:37.960Z,14.42
2017-03-01T09:46:48.383Z,14.44
2017-03-01T09:47:58.806Z,14.41
2017-03-01T09:49:09.606Z,14.38
2017-03-01T09:50:19.982Z,14.36
2017-03-01T09:51:30.371Z,14.38
2017-03-01T09:52:40.777Z,14.27
2017-03-01T09:53:51.569Z,14.36
2017-03-01T09:55:01.587Z,14.44
2017-03-01T09:56:12.379Z,14.39
2017-03-01T09:57:22.416Z,14.28
2017-03-01T09:58:32.053Z,14.28
2017-03-01T09:59:42.882Z,14.41
2017-03-01T10:00:53.274Z,14.49
2017-03-01T10:02:03.682Z,14.59
2017-03-01T10:03:13.683Z,14.59
2017-03-01T10:04:24.524Z,14.53
2017-03-01T10:05:34.932Z,14.74
2017-03-01T10:06:45.326Z,14.74
2017-03-01T10:07:56.126Z,14.75
2017-03-01T10:09:06.935Z,14.89
2017-03-01T10:10:17.334Z,15.04
2017-03-01T10:11:27.328Z,15.16
2017-03-01T10:12:37.706Z,15.26
2017-03-01T10:13:48.095Z,15.41
2017-03-01T10:14:58.094Z,15.51
2017-03-01T10:16:08.503Z,15.62
2017-03-01T10:17:18.878Z,15.77
2017-03-01T10:18:29.267Z,15.88
2017-03-01T10:19:40.088Z,16.06
2017-03-01T10:20:50.470Z,16.08
2017-03-01T10:22:00.860Z,16.18
2017-03-01T10:23:11.670Z,16.32
2017-03-01T10:24:22.490Z,16.42
2017-03-01T10:25:32.883Z,16.36
2017-03-01T10:26:42.902Z,16.44
2017-03-01T10:27:53.706Z,16.51
2017-03-01T10:29:04.107Z,16.54
2017-03-01T10:30:14.378Z,16.7
2017-03-01T10:31:24.833Z,16.69
2017-03-01T10:32:34.889Z,16.62
2017-03-01T10:33:45.286Z,16.58
2017-03-01T10:34:55.715Z,16.57
2017-03-01T10:36:06.100Z,16.54
2017-03-01T10:37:16.508Z,16.57
2017-03-01T10:38:27.573Z,16.65
2017-03-01T10:39:37.972Z,16.72
2017-03-01T10:40:48.392Z,16.65
2017-03-01T10:41:59.174Z,16.66
2017-03-01T10:43:09.995Z,16.67
2017-03-01T10:44:20.444Z,16.59
2017-03-01T10:45:31.257Z,16.52
2017-03-01T10:46:42.068Z,16.59
2017-03-01T10:47:52.865Z,16.63
2017-03-01T10:49:03.644Z,16.59
2017-03-01T10:50:14.458Z,16.59
2017-03-01T10:51:25.254Z,16.44
2017-03-01T10:52:35.650Z,16.36
2017-03-01T10:53:46.434Z,16.39
2017-03-01T10:54:56.829Z,16.37
2017-03-01T10:56:07.249Z,16.4
2017-03-01T10:57:17.641Z,16.42
2017-03-01T10:58:28.077Z,16.4
2017-03-01T10:59:38.087Z,16.44
2017-03-01T11:00:48.476Z,16.45
2017-03-01T11:01:58.853Z,16.44
2017-03-01T11:03:09.255Z,16.29
2017-03-01T11:04:19.642Z,16.21
2017-03-01T11:05:30.472Z,16.1
2017-03-01T11:06:40.863Z,16.16
2017-03-01T11:07:51.692Z,16.18
2017-03-01T11:09:02.499Z,16.21
2017-03-01T11:10:12.925Z,16.21
2017-03-01T11:11:23.736Z,16.3
2017-03-01T11:12:34.548Z,16.4
2017-03-01T11:13:44.968Z,16.59
2017-03-01T11:14:55.371Z,16.65
2017-03-01T11:16:06.161Z,16.8
2017-03-01T11:17:16.955Z,17
2017-03-01T11:18:27.356Z,17.09
2017-03-01T11:19:38.175Z,17.21
2017-03-01T11:20:48.577Z,17.06
2017-03-01T11:21:59.387Z,16.92
2017-03-01T11:23:10.189Z,17.06
2017-03-01T11:24:20.991Z,17.07
2017-03-01T11:25:31.390Z,16.94
2017-03-01T11:26:41.794Z,16.8
2017-03-01T11:27:52.230Z,16.77
2017-03-01T11:29:02.623Z,16.63
2017-03-01T11:30:13.412Z,16.62
2017-03-01T11:31:23.825Z,16.84
2017-03-01T11:32:34.249Z,17.22
2017-03-01T11:33:45.039Z,17.4
2017-03-01T11:34:55.060Z,17.25
2017-03-01T11:36:05.843Z,17.21
2017-03-01T11:37:16.227Z,17.13
2017-03-01T11:38:26.655Z,17.31
2017-03-01T11:39:37.050Z,17.54
2017-03-01T11:40:47.460Z,17.71
2017-03-01T11:41:58.239Z,17.88
2017-03-01T11:43:08.246Z,18.06
2017-03-01T11:44:19.054Z,18.24
2017-03-01T11:45:29.443Z,18.1
2017-03-01T11:46:39.846Z,18.14
2017-03-01T11:47:50.250Z,18.19
2017-03-01T11:49:00.688Z,18.23
2017-03-01T11:50:11.498Z,18.03
2017-03-01T11:51:22.310Z,18.19
2017-03-01T11:52:33.114Z,18.2
2017-03-01T11:53:43.515Z,18.45
2017-03-01T11:54:53.910Z,18.59
2017-03-01T11:56:03.943Z,18.39
2017-03-01T11:57:14.382Z,17.99
2017-03-01T11:58:24.815Z,17.69
2017-03-01T11:59:35.603Z,18.08
2017-03-01T12:00:45.636Z,17.76
2017-03-01T12:01:56.435Z,18.03
2017-03-01T12:03:07.262Z,18.31
2017-03-01T12:04:18.075Z,18.13
2017-03-01T12:05:28.459Z,17.79
2017-03-01T12:06:39.284Z,17.43
2017-03-01T12:07:50.136Z,17.35
2017-03-01T12:09:00.555Z,17.43
2017-03-01T12:10:10.558Z,17.65
2017-03-01T12:11:21.374Z,18.14
2017-03-01T12:12:31.404Z,17.55
2017-03-01T12:13:41.796Z,17.83
2017-03-01T12:14:52.215Z,17.52
2017-03-01T12:16:02.225Z,17.27
2017-03-01T12:17:12.661Z,17.12
2017-03-01T12:18:23.104Z,16.92
2017-03-01T12:19:33.495Z,16.88
2017-03-01T12:20:43.916Z,16.76
2017-03-01T12:21:53.533Z,16.9
2017-03-01T12:23:03.933Z,17.69
2017-03-01T12:24:14.739Z,17.55
2017-03-01T12:25:25.139Z,17.2
2017-03-01T12:26:35.512Z,16.91
2017-03-01T12:27:46.347Z,16.74
2017-03-01T12:28:56.774Z,16.62
2017-03-01T12:30:06.393Z,16.65
2017-03-01T12:31:17.189Z,16.94
2017-03-01T12:32:27.605Z,17.43
2017-03-01T12:33:38.417Z,18.17
2017-03-01T12:34:48.843Z,18.45
2017-03-01T12:35:59.639Z,18.44
2017-03-01T12:37:10.436Z,17.9
2017-03-01T12:38:20.839Z,18.23
2017-03-01T12:39:31.618Z,18.41
2017-03-01T12:40:42.026Z,18.6
2017-03-01T12:41:52.424Z,18.72
2017-03-01T12:43:02.838Z,18.91
2017-03-01T12:44:13.263Z,18.96
2017-03-01T12:45:24.077Z,19.1
2017-03-01T12:46:34.488Z,19.27
2017-03-01T12:47:44.889Z,19.32
2017-03-01T12:48:55.708Z,19.47
2017-03-01T12:50:06.106Z,19.6
2017-03-01T12:51:16.924Z,19.74
2017-03-01T12:52:27.322Z,19.85
2017-03-01T12:53:37.712Z,19.82
2017-03-01T12:54:48.511Z,19.02
2017-03-01T12:55:58.119Z,19.24
2017-03-01T12:57:08.899Z,19.32
2017-03-01T12:58:19.722Z,19.35
2017-03-01T12:59:30.128Z,19.43
2017-03-01T13:00:40.938Z,19.4
2017-03-01T13:01:51.348Z,19.49
2017-03-01T13:03:01.783Z,19.56
2017-03-01T13:04:12.210Z,19.52
2017-03-01T13:05:22.628Z,18.86
2017-03-01T13:06:33.064Z,18.84
2017-03-01T13:07:44.130Z,19.09
2017-03-01T13:08:54.937Z,19.4
2017-03-01T13:10:05.349Z,18.96
2017-03-01T13:11:15.416Z,19.45
2017-03-01T13:12:25.817Z,19.63
2017-03-01T13:13:36.616Z,19.79
2017-03-01T13:14:46.640Z,19.46
2017-03-01T13:15:57.458Z,18.76
2017-03-01T13:17:08.277Z,18.75
2017-03-01T13:18:19.065Z,18.26
2017-03-01T13:19:29.471Z,18.06
2017-03-01T13:20:39.874Z,18.13
2017-03-01T13:21:50.666Z,17.92
2017-03-01T13:23:01.453Z,17.9
2017-03-01T13:24:12.251Z,18.34
2017-03-01T13:25:22.646Z,18.82
2017-03-01T13:26:32.678Z,18.61
2017-03-01T13:27:42.668Z,18.19
2017-03-01T13:28:53.112Z,18.53
2017-03-01T13:30:03.521Z,18.6
2017-03-01T13:31:13.922Z,18.97
2017-03-01T13:32:23.937Z,18.89
2017-03-01T13:33:33.559Z,18.72
2017-03-01T13:34:44.368Z,19.2
2017-03-01T13:35:55.176Z,19.05
2017-03-01T13:37:05.182Z,18.75
2017-03-01T13:38:15.208Z,18.45
2017-03-01T13:39:26.022Z,18.26
2017-03-01T13:40:36.429Z,18.42
2017-03-01T13:41:46.825Z,18.69
2017-03-01T13:42:57.656Z,18.74
2017-03-01T13:44:08.493Z,18.74
2017-03-01T13:45:18.530Z,18.89
2017-03-01T13:46:28.931Z,18.93
2017-03-01T13:47:39.720Z,19.06
2017-03-01T13:48:50.126Z,19.16
2017-03-01T13:50:00.550Z,19.12
2017-03-01T13:51:10.596Z,19.02
2017-03-01T13:52:21.010Z,19.09
2017-03-01T13:53:31.039Z,18.94
2017-03-01T13:54:41.420Z,18.89
2017-03-01T13:55:51.865Z,18.91
2017-03-01T13:57:02.290Z,18.86
2017-03-01T13:58:12.717Z,18.82
2017-03-01T13:59:23.517Z,18.72
2017-03-01T14:00:34.316Z,18.69
2017-03-01T14:01:44.722Z,18.68
2017-03-01T14:02:55.147Z,18.49
2017-03-01T14:04:05.957Z,18.13
2017-03-01T14:05:16.774Z,17.62
2017-03-01T14:06:27.586Z,17.1
2017-03-01T14:07:38.393Z,17.31
2017-03-01T14:08:48.794Z,17.02
2017-03-01T14:09:59.191Z,16.62
2017-03-01T14:11:10.033Z,16.36
2017-03-01T14:12:20.820Z,16.16
2017-03-01T14:13:31.645Z,15.95
2017-03-01T14:14:42.038Z,15.71
2017-03-01T14:15:52.440Z,15.91
2017-03-01T14:17:02.839Z,16.26
2017-03-01T14:18:13.618Z,16.44
2017-03-01T14:19:23.227Z,16.58
2017-03-01T14:20:32.861Z,16.57
2017-03-01T14:21:43.268Z,16.34
2017-03-01T14:22:53.680Z,16.42
2017-03-01T14:24:04.087Z,16.42
2017-03-01T14:25:14.475Z,16.45
2017-03-01T14:26:24.871Z,16.11
2017-03-01T14:27:35.278Z,16.25
2017-03-01T14:28:46.077Z,16.25
2017-03-01T14:29:56.082Z,15.91
2017-03-01T14:31:06.906Z,16.17
2017-03-01T14:32:17.708Z,16.37
2017-03-01T14:33:28.548Z,15.93
2017-03-01T14:34:38.583Z,16.29
2017-03-01T14:35:49.369Z,16.29
2017-03-01T14:36:59.407Z,16.3
2017-03-01T14:38:10.207Z,16.27
2017-03-01T14:39:20.590Z,16.34
2017-03-01T14:40:30.971Z,16.39
2017-03-01T14:41:40.982Z,16.42
2017-03-01T14:42:51.779Z,16.48
2017-03-01T14:44:02.200Z,16.48
2017-03-01T14:45:13.036Z,16.4
2017-03-01T14:46:23.470Z,16.02
2017-03-01T14:47:33.875Z,15.73
2017-03-01T14:48:44.254Z,15.51
2017-03-01T14:49:54.684Z,15.44
2017-03-01T14:51:05.472Z,15.33
2017-03-01T14:52:15.878Z,15.16
2017-03-01T14:53:26.668Z,15.16
2017-03-01T14:54:37.469Z,15.1
2017-03-01T14:55:48.287Z,15.07
2017-03-01T14:56:59.097Z,15.13
2017-03-01T14:58:08.718Z,15.1
2017-03-01T14:59:19.146Z,15.13
2017-03-01T15:00:29.944Z,15.26
2017-03-01T15:01:40.750Z,15.67
2017-03-01T15:02:51.190Z,15.92
2017-03-01T15:04:01.616Z,16.04
2017-03-01T15:05:12.443Z,16.17
2017-03-01T15:06:22.872Z,16.04
2017-03-01T15:07:33.297Z,15.98
2017-03-01T15:08:43.703Z,15.74
2017-03-01T15:09:54.508Z,15.62
2017-03-01T15:11:05.323Z,15.6
2017-03-01T15:12:16.134Z,15.95
2017-03-01T15:13:26.536Z,16.27
2017-03-01T15:14:37.342Z,16.34
2017-03-01T15:15:47.754Z,16.47
2017-03-01T15:16:58.191Z,16.4
2017-03-01T15:18:08.582Z,16.4
2017-03-01T15:19:19.391Z,16.4
2017-03-01T15:20:30.190Z,16.58
2017-03-01T15:21:41.012Z,16.58
2017-03-01T15:22:51.427Z,16.45
2017-03-01T15:24:02.246Z,16.52
2017-03-01T15:25:13.053Z,16.58
2017-03-01T15:26:23.839Z,16.57
2017-03-01T15:27:33.843Z,16.48
2017-03-01T15:28:44.254Z,16.34
2017-03-01T15:29:54.664Z,16.39
2017-03-01T15:31:05.059Z,16.33
2017-03-01T15:32:15.864Z,16.11
2017-03-01T15:33:26.321Z,15.96
2017-03-01T15:34:37.146Z,15.98
2017-03-01T15:35:47.555Z,15.95
2017-03-01T15:36:58.368Z,15.92
2017-03-01T15:38:08.381Z,15.88
2017-03-01T15:39:19.233Z,15.92
2017-03-01T15:40:29.629Z,15.96
2017-03-01T15:41:40.037Z,15.77